Time;durP1;ratioP1;P1;durP2;ratioP2;P2;SDS_P1;SDS_P2;PMS_P1;PMS_P2;Temp;Humidity;BMP_temperature;BMP_pressure;BME280_temperature;BME280_humidity;BME280_pressure;Samples;Min_cycle;Max_cycle;Signal;HPM_P1;HPM_P2
2022/12/24 00:01:06;;;;;;;17.07;3.70;;;10.80;99.90;;;;;;5023600;28;20512;-78
2022/12/24 00:03:38;;;;;;;17.00;4.13;;;10.80;99.90;;;;;;5026188;28;20494;-82
2022/12/24 00:06:09;;;;;;;13.70;4.20;;;10.80;99.90;;;;;;5019505;28;20543;-80
2022/12/24 00:08:36;;;;;;;15.53;3.87;;;10.70;99.90;;;;;;5014115;28;20441;-82
2022/12/24 00:13:56;;;;;;;16.63;5.57;;;10.70;99.90;;;;;;5016571;28;20533;-80
2022/12/24 00:16:23;;;;;;;21.27;4.20;;;10.70;99.90;;;;;;5013668;28;20508;-81
2022/12/24 00:18:52;;;;;;;17.70;4.80;;;10.70;99.90;;;;;;5013307;28;21022;-81
2022/12/24 00:21:19;;;;;;;21.00;4.97;;;10.70;99.90;;;;;;5008719;28;20522;-81
2022/12/24 00:23:45;;;;;;;18.53;4.03;;;10.70;99.90;;;;;;5010350;28;20618;-81
2022/12/24 00:26:15;;;;;;;17.33;3.90;;;10.70;99.90;;;;;;5004386;28;20479;-80
2022/12/24 00:28:42;;;;;;;13.50;3.90;;;10.80;99.90;;;;;;5005440;28;20456;-81
2022/12/24 00:31:11;;;;;;;14.57;4.00;;;10.80;99.90;;;;;;5006255;28;20484;-79
2022/12/24 00:33:38;;;;;;;23.87;5.77;;;10.80;99.90;;;;;;4996578;28;20963;-79
2022/12/24 00:36:10;;;;;;;14.07;3.80;;;10.90;99.90;;;;;;4997216;28;20486;-80
2022/12/24 00:38:37;;;;;;;24.63;4.37;;;10.90;99.90;;;;;;4996137;28;20544;-79
2022/12/24 00:41:22;;;;;;;16.80;3.80;;;10.90;99.90;;;;;;4997501;28;20490;-80
2022/12/24 00:43:50;;;;;;;11.63;2.87;;;11.00;99.90;;;;;;5004154;28;20476;-80
2022/12/24 00:46:16;;;;;;;18.53;3.60;;;11.00;99.90;;;;;;5003249;28;20481;-77
2022/12/24 00:48:43;;;;;;;16.70;4.07;;;11.00;99.90;;;;;;4996842;28;20468;-80
2022/12/24 00:51:11;;;;;;;20.70;3.70;;;11.00;99.90;;;;;;4998369;28;20538;-80
2022/12/24 00:53:38;;;;;;;21.20;3.53;;;11.00;99.90;;;;;;4996460;28;20447;-79
2022/12/24 00:56:06;;;;;;;17.70;5.20;;;11.10;99.90;;;;;;4998174;28;20556;-79
2022/12/24 00:58:33;;;;;;;13.03;4.07;;;11.00;99.90;;;;;;4997018;28;20481;-80
2022/12/24 01:01:00;;;;;;;19.67;3.90;;;11.10;99.90;;;;;;4998632;28;20458;-80
2022/12/24 01:03:34;;;;;;;18.10;3.87;;;11.00;99.90;;;;;;4997516;28;20509;-80
2022/12/24 01:06:01;;;;;;;16.60;4.33;;;11.00;99.90;;;;;;4986620;28;20492;-80
2022/12/24 01:08:29;;;;;;;24.27;4.70;;;11.00;99.90;;;;;;5034582;22;21031;-80
2022/12/24 01:10:56;;;;;;;22.60;4.70;;;11.00;99.90;;;;;;5035139;28;20468;-80
2022/12/24 01:13:23;;;;;;;18.60;3.53;;;11.00;99.90;;;;;;5034893;28;20824;-80
2022/12/24 01:15:50;;;;;;;14.53;3.50;;;11.00;99.90;;;;;;5034781;28;21048;-81
2022/12/24 01:18:17;;;;;;;20.07;3.87;;;11.00;99.90;;;;;;5034360;28;20467;-80
2022/12/24 01:20:44;;;;;;;9.77;3.70;;;11.00;99.90;;;;;;5035817;28;20450;-81
2022/12/24 01:23:10;;;;;;;19.47;5.43;;;11.00;99.90;;;;;;5034684;28;20452;-81
2022/12/24 01:25:39;;;;;;;8.93;3.10;;;11.00;99.90;;;;;;5035892;28;20808;-81
2022/12/24 01:28:06;;;;;;;10.83;2.50;;;11.00;99.90;;;;;;5033914;28;20503;-80
2022/12/24 01:30:33;;;;;;;21.93;4.10;;;11.00;99.90;;;;;;5034266;28;20951;-80
2022/12/24 01:32:59;;;;;;;16.60;4.17;;;10.90;99.90;;;;;;5035017;28;20546;-81
2022/12/24 01:35:26;;;;;;;18.10;4.10;;;10.80;99.90;;;;;;5034481;28;20448;-80
2022/12/24 01:37:53;;;;;;;18.37;4.20;;;10.80;99.90;;;;;;5034460;28;20475;-79
2022/12/24 01:43:27;;;;;;;20.43;4.33;;;10.80;99.90;;;;;;5027278;28;20451;-78
2022/12/24 01:45:56;;;;;;;17.03;4.13;;;10.80;99.90;;;;;;5034248;28;20482;-80
2022/12/24 01:48:32;;;;;;;17.53;4.33;;;10.80;99.90;;;;;;5027792;28;20471;-80
2022/12/24 01:51:04;;;;;;;17.30;3.80;;;10.70;99.90;;;;;;5032829;28;20471;-81
2022/12/24 01:53:34;;;;;;;13.47;3.90;;;10.70;99.90;;;;;;5033391;28;20458;-81
2022/12/24 01:56:01;;;;;;;16.33;3.80;;;10.70;99.90;;;;;;5034299;28;20459;-81
2022/12/24 01:58:30;;;;;;;17.47;4.57;;;10.70;99.90;;;;;;5032500;28;20865;-81
2022/12/24 02:00:58;;;;;;;17.77;3.77;;;10.70;99.90;;;;;;5033233;28;20840;-80
2022/12/24 02:03:25;;;;;;;19.33;6.17;;;10.70;99.90;;;;;;5033027;28;20460;-82
2022/12/24 02:05:54;;;;;;;20.90;5.13;;;10.70;99.90;;;;;;5033299;28;20561;-79
2022/12/24 02:08:21;;;;;;;17.40;4.00;;;10.70;99.90;;;;;;5030021;28;20861;-79
2022/12/24 02:10:49;;;;;;;22.50;4.30;;;10.70;99.90;;;;;;5034354;28;20455;-81
2022/12/24 02:13:20;;;;;;;16.37;3.93;;;10.70;99.90;;;;;;5033088;28;20473;-79
2022/12/24 02:16:02;;;;;;;15.93;3.33;;;10.70;99.90;;;;;;5033512;28;20474;-79
2022/12/24 02:18:39;;;;;;;18.50;4.80;;;10.70;99.90;;;;;;5032231;28;20478;-80
2022/12/24 02:21:32;;;;;;;16.53;3.90;;;10.60;99.90;;;;;;5016684;28;20828;-79
2022/12/24 02:24:28;;;;;;;20.57;3.67;;;10.50;99.90;;;;;;5032493;28;20492;-80
2022/12/24 02:27:21;;;;;;;28.37;5.97;;;10.40;99.90;;;;;;5028046;28;20468;-79
2022/12/24 02:30:08;;;;;;;23.97;6.27;;;10.30;99.90;;;;;;5027574;28;20502;-81
2022/12/24 02:32:44;;;;;;;25.30;5.77;;;10.30;99.90;;;;;;5036624;28;20452;-80
2022/12/24 02:35:17;;;;;;;21.60;4.57;;;10.30;99.90;;;;;;5035819;28;20433;-80
2022/12/24 02:37:49;;;;;;;13.63;3.63;;;10.30;99.90;;;;;;5037728;28;20451;-79
2022/12/24 02:40:21;;;;;;;17.53;4.67;;;10.30;99.90;;;;;;5040318;28;20533;-79
2022/12/24 02:42:53;;;;;;;16.87;5.07;;;10.20;99.90;;;;;;5037964;28;20464;-79
2022/12/24 02:45:25;;;;;;;19.13;5.37;;;10.20;99.90;;;;;;5030796;28;20474;-79
2022/12/24 02:47:54;;;;;;;24.43;5.03;;;10.20;99.90;;;;;;5032440;28;20474;-80
2022/12/24 02:50:21;;;;;;;10.03;3.80;;;10.20;99.90;;;;;;5032531;28;20538;-80
2022/12/24 02:52:49;;;;;;;19.33;4.43;;;10.10;99.90;;;;;;5032909;28;20480;-80
2022/12/24 02:55:21;;;;;;;34.23;5.70;;;10.20;99.90;;;;;;5032632;28;20459;-79
2022/12/24 02:58:10;;;;;;;22.50;4.97;;;10.10;99.90;;;;;;5031840;28;20451;-78
2022/12/24 03:00:54;;;;;;;24.73;4.70;;;10.00;99.90;;;;;;5031954;28;20551;-79
2022/12/24 03:03:35;;;;;;;24.27;4.87;;;10.00;99.90;;;;;;5032397;28;20458;-80
2022/12/24 03:06:09;;;;;;;25.40;7.10;;;10.00;99.90;;;;;;5032895;28;20456;-80
2022/12/24 03:08:43;;;;;;;20.37;5.67;;;10.10;99.90;;;;;;5030889;28;20481;-80
2022/12/24 03:11:13;;;;;;;18.20;4.73;;;10.10;99.90;;;;;;5032874;28;20433;-80
2022/12/24 03:13:40;;;;;;;21.50;4.87;;;10.10;99.90;;;;;;5032218;28;20881;-79
2022/12/24 03:16:12;;;;;;;16.53;4.47;;;10.20;99.90;;;;;;5034678;28;20514;-80
2022/12/24 03:18:42;;;;;;;25.47;4.70;;;10.30;99.90;;;;;;5029822;28;21095;-80
2022/12/24 03:21:13;;;;;;;24.63;5.80;;;10.30;99.90;;;;;;5028668;28;20451;-80
2022/12/24 03:23:40;;;;;;;14.87;4.90;;;10.40;99.90;;;;;;5028996;28;20447;-80
2022/12/24 03:26:10;;;;;;;19.03;4.93;;;10.40;99.90;;;;;;5032027;28;20452;-80
2022/12/24 03:28:39;;;;;;;19.63;4.70;;;10.40;99.90;;;;;;5031734;28;20478;-81
2022/12/24 03:31:08;;;;;;;18.87;4.40;;;10.40;99.90;;;;;;5031981;28;20451;-81
2022/12/24 03:33:35;;;;;;;12.63;4.30;;;10.50;99.90;;;;;;5031740;28;20582;-80
2022/12/24 03:36:03;;;;;;;11.17;4.03;;;10.50;99.90;;;;;;5032180;28;20463;-80
2022/12/24 03:38:30;;;;;;;19.87;5.03;;;10.60;99.90;;;;;;5031920;28;20478;-81
2022/12/24 03:40:57;;;;;;;28.33;5.60;;;10.60;99.90;;;;;;5031781;28;20466;-81
2022/12/24 03:43:24;;;;;;;20.63;4.13;;;10.50;99.90;;;;;;5032143;28;20462;-81
2022/12/24 03:45:51;;;;;;;15.70;3.67;;;10.60;99.90;;;;;;5031704;28;20501;-81
2022/12/24 03:48:19;;;;;;;21.07;4.80;;;10.60;99.90;;;;;;5031704;28;21152;-80
2022/12/24 03:50:46;;;;;;;14.13;3.30;;;10.60;99.90;;;;;;5032290;28;20461;-80
2022/12/24 03:53:12;;;;;;;21.70;6.07;;;10.60;99.90;;;;;;5032552;28;20451;-79
2022/12/24 03:55:39;;;;;;;13.97;3.60;;;10.60;99.90;;;;;;5032342;28;20803;-80
2022/12/24 03:58:06;;;;;;;20.40;3.83;;;10.60;99.90;;;;;;5031727;28;20483;-81
2022/12/24 04:00:33;;;;;;;17.23;4.30;;;10.60;99.90;;;;;;5034141;28;20538;-80
2022/12/24 04:03:00;;;;;;;26.63;5.97;;;10.60;99.90;;;;;;5037128;28;20456;-79
2022/12/24 04:05:28;;;;;;;21.43;4.40;;;10.50;99.90;;;;;;5042213;28;20575;-79
2022/12/24 04:07:55;;;;;;;21.97;5.03;;;10.50;99.90;;;;;;5042430;28;20660;-80
2022/12/24 04:10:22;;;;;;;14.67;4.37;;;10.50;99.90;;;;;;5042326;28;20549;-80
2022/12/24 04:12:48;;;;;;;18.43;4.97;;;10.60;99.90;;;;;;5045272;28;20498;-79
2022/12/24 04:15:15;;;;;;;18.93;3.70;;;10.60;99.90;;;;;;5043726;28;20462;-79
2022/12/24 04:17:42;;;;;;;16.97;4.30;;;10.50;99.90;;;;;;5042898;28;20646;-79
2022/12/24 04:20:10;;;;;;;18.03;3.80;;;10.50;99.90;;;;;;5036469;28;20463;-79
2022/12/24 04:22:38;;;;;;;20.03;5.23;;;10.50;99.90;;;;;;5036759;28;20452;-79
2022/12/24 04:25:06;;;;;;;15.40;3.70;;;10.50;99.90;;;;;;5040329;28;20490;-80
2022/12/24 04:27:32;;;;;;;18.17;4.60;;;10.50;99.90;;;;;;5039937;28;20518;-80
2022/12/24 04:29:59;;;;;;;15.00;3.67;;;10.40;99.90;;;;;;5041356;28;20456;-79
2022/12/24 04:32:26;;;;;;;16.63;4.00;;;10.40;99.90;;;;;;5039507;28;21057;-80
2022/12/24 04:34:53;;;;;;;17.53;4.20;;;10.40;99.90;;;;;;5037460;28;20458;-80
2022/12/24 04:37:20;;;;;;;14.10;3.50;;;10.40;99.90;;;;;;5037836;28;20454;-80
2022/12/24 04:39:48;;;;;;;17.27;3.70;;;10.40;99.90;;;;;;5037477;28;20935;-80
2022/12/24 04:42:14;;;;;;;14.23;4.73;;;10.40;99.90;;;;;;5038786;28;20456;-80
2022/12/24 04:44:41;;;;;;;17.40;2.80;;;10.50;99.90;;;;;;5036758;28;20487;-81
2022/12/24 04:47:09;;;;;;;16.73;3.70;;;10.50;99.90;;;;;;5036733;28;20463;-81
2022/12/24 04:49:36;;;;;;;17.03;4.43;;;10.50;99.90;;;;;;5036605;28;20468;-81
2022/12/24 04:52:03;;;;;;;16.10;3.97;;;10.60;99.90;;;;;;5038225;28;20452;-81
2022/12/24 04:54:29;;;;;;;9.07;2.77;;;10.60;99.90;;;;;;5037968;28;20986;-80
2022/12/24 04:56:58;;;;;;;16.43;3.87;;;10.60;99.90;;;;;;5038426;28;20459;-81
2022/12/24 04:59:24;;;;;;;11.70;3.60;;;10.60;99.90;;;;;;5037569;28;21217;-81
2022/12/24 05:01:51;;;;;;;15.00;3.80;;;10.50;99.90;;;;;;5038717;28;20546;-80
2022/12/24 05:04:18;;;;;;;20.00;4.07;;;10.40;99.90;;;;;;5038317;28;20462;-81
2022/12/24 05:06:45;;;;;;;17.20;4.00;;;10.40;99.90;;;;;;5039061;28;20454;-81
2022/12/24 05:09:12;;;;;;;15.17;4.80;;;10.40;99.90;;;;;;5041828;28;20561;-82
2022/12/24 05:11:38;;;;;;;12.90;3.80;;;10.30;99.90;;;;;;5040166;28;20505;-81
2022/12/24 05:14:06;;;;;;;12.53;4.00;;;10.30;99.90;;;;;;5044586;28;20475;-80
2022/12/24 05:16:33;;;;;;;15.90;4.03;;;10.30;99.90;;;;;;5033458;28;20451;-80
2022/12/24 05:19:00;;;;;;;14.37;4.00;;;10.30;99.90;;;;;;5038989;28;20476;-78
2022/12/24 05:21:27;;;;;;;9.20;3.33;;;10.30;99.90;;;;;;5042033;28;20476;-78
2022/12/24 05:26:41;;;;;;;9.53;3.53;;;10.30;99.90;;;;;;5043084;28;21006;-79
2022/12/24 05:29:10;;;;;;;14.73;3.97;;;10.30;99.90;;;;;;5039073;28;20486;-80
2022/12/24 05:31:39;;;;;;;18.93;4.90;;;10.30;99.90;;;;;;5037347;28;20452;-80
2022/12/24 05:34:06;;;;;;;12.63;3.73;;;10.30;99.90;;;;;;5035798;28;20454;-78
2022/12/24 05:36:33;;;;;;;10.63;3.70;;;10.30;99.90;;;;;;5035171;28;20450;-79
2022/12/24 05:39:00;;;;;;;10.70;3.80;;;10.30;99.90;;;;;;5033365;28;20472;-78
2022/12/24 05:41:27;;;;;;;17.77;4.80;;;10.30;99.90;;;;;;5034076;28;20451;-78
2022/12/24 05:43:54;;;;;;;15.40;4.90;;;10.30;99.90;;;;;;5035017;28;20453;-78
2022/12/24 05:46:23;;;;;;;19.87;5.07;;;10.30;99.90;;;;;;5035632;28;20488;-79
2022/12/24 05:48:51;;;;;;;10.03;3.40;;;10.40;99.90;;;;;;5034654;28;20482;-79
2022/12/24 05:51:20;;;;;;;9.70;3.87;;;10.40;99.90;;;;;;5034741;28;20456;-79
2022/12/24 05:53:48;;;;;;;18.33;5.07;;;10.40;99.90;;;;;;5035055;28;20539;-78
2022/12/24 05:56:17;;;;;;;18.10;5.50;;;10.40;99.90;;;;;;5035220;28;20451;-79
2022/12/24 05:58:44;;;;;;;11.23;3.03;;;10.40;99.90;;;;;;5033839;28;20851;-78
2022/12/24 06:01:13;;;;;;;15.73;4.27;;;10.50;99.90;;;;;;5030854;28;20839;-78
2022/12/24 06:03:41;;;;;;;14.90;5.60;;;10.50;99.90;;;;;;5033643;28;20460;-78
2022/12/24 06:06:10;;;;;;;13.10;3.93;;;10.50;99.90;;;;;;5034773;28;20853;-78
2022/12/24 06:08:38;;;;;;;13.73;4.17;;;10.50;99.90;;;;;;5032933;28;20502;-78
2022/12/24 06:11:07;;;;;;;19.10;4.07;;;10.50;99.90;;;;;;5034686;28;20450;-77
2022/12/24 06:13:34;;;;;;;18.30;4.40;;;10.50;99.90;;;;;;5033618;28;20559;-79
2022/12/24 06:16:03;;;;;;;15.03;3.80;;;10.50;99.90;;;;;;5034795;28;20474;-78
2022/12/24 06:18:30;;;;;;;10.27;2.93;;;10.60;99.90;;;;;;5034449;28;20487;-78
2022/12/24 06:20:58;;;;;;;18.90;4.67;;;10.60;99.90;;;;;;5034289;28;20462;-78
2022/12/24 06:23:26;;;;;;;10.90;3.03;;;10.60;99.90;;;;;;5033260;28;20467;-79
2022/12/24 06:25:56;;;;;;;11.03;3.80;;;10.60;99.90;;;;;;5033258;28;20556;-78
2022/12/24 06:28:23;;;;;;;10.93;3.40;;;10.70;99.90;;;;;;5033700;28;20522;-80
2022/12/24 06:30:50;;;;;;;15.67;4.30;;;10.70;99.90;;;;;;5034374;28;20994;-79
2022/12/24 06:33:17;;;;;;;19.13;4.77;;;10.50;99.90;;;;;;5034849;28;20544;-79
2022/12/24 06:35:46;;;;;;;17.93;3.20;;;10.80;99.90;;;;;;5030332;28;20444;-79
2022/12/24 06:38:14;;;;;;;19.80;4.20;;;10.80;99.90;;;;;;5033200;28;20483;-79
2022/12/24 06:40:44;;;;;;;15.20;3.30;;;10.80;99.90;;;;;;5033806;28;20446;-78
2022/12/24 06:43:11;;;;;;;18.23;3.53;;;10.80;99.90;;;;;;5034096;28;20444;-79
2022/12/24 06:45:38;;;;;;;15.17;4.50;;;10.80;99.90;;;;;;5034279;28;21026;-79
2022/12/24 06:48:06;;;;;;;19.83;3.90;;;10.80;99.90;;;;;;5033083;28;20463;-77
2022/12/24 06:50:33;;;;;;;14.27;3.93;;;10.70;99.90;;;;;;5032860;28;20453;-78
2022/12/24 06:53:00;;;;;;;15.97;4.10;;;10.70;99.90;;;;;;5034108;28;20861;-77
2022/12/24 06:55:28;;;;;;;10.47;3.10;;;10.70;99.90;;;;;;5034216;28;20450;-81
2022/12/24 06:57:55;;;;;;;9.93;4.00;;;10.60;99.90;;;;;;5030548;28;20488;-78
2022/12/24 07:00:22;;;;;;;17.10;4.03;;;10.60;99.90;;;;;;5032587;28;21135;-79
2022/12/24 07:02:49;;;;;;;17.20;5.00;;;10.50;99.90;;;;;;5034044;28;20458;-79
2022/12/24 07:05:16;;;;;;;22.80;4.40;;;10.50;99.90;;;;;;5034501;28;20507;-78
2022/12/24 07:07:45;;;;;;;15.77;4.23;;;10.50;99.90;;;;;;5033358;28;20555;-78
2022/12/24 07:10:12;;;;;;;13.33;3.43;;;10.50;99.90;;;;;;5032087;28;20478;-79
2022/12/24 07:12:41;;;;;;;13.47;4.00;;;10.50;99.90;;;;;;5033338;22;20497;-81
2022/12/24 07:15:09;;;;;;;13.40;3.43;;;10.50;99.90;;;;;;5014236;28;20579;-82
2022/12/24 07:17:36;;;;;;;21.77;4.93;;;10.60;99.90;;;;;;5012210;28;20530;-82
2022/12/24 07:20:03;;;;;;;13.33;3.60;;;10.60;99.90;;;;;;5017896;28;20964;-82
2022/12/24 07:22:30;;;;;;;14.77;3.50;;;10.50;99.90;;;;;;5016314;28;20552;-83
2022/12/24 07:24:57;;;;;;;17.17;3.83;;;10.60;99.90;;;;;;5021788;28;20476;-81
2022/12/24 07:27:24;;;;;;;16.33;3.83;;;10.50;99.90;;;;;;5021408;28;20457;-82
2022/12/24 07:29:52;;;;;;;15.63;3.13;;;10.60;99.90;;;;;;5016507;28;20966;-82
2022/12/24 07:32:19;;;;;;;8.90;2.80;;;10.60;99.90;;;;;;5023814;28;20497;-81
2022/12/24 07:34:46;;;;;;;18.23;5.23;;;10.60;99.90;;;;;;5014196;28;20455;-81
2022/12/24 07:37:13;;;;;;;18.27;4.53;;;10.70;99.90;;;;;;5018780;28;20460;-82
2022/12/24 07:39:40;;;;;;;10.73;3.50;;;10.70;99.90;;;;;;5019783;28;20456;-81
2022/12/24 07:42:07;;;;;;;10.33;3.40;;;10.70;99.90;;;;;;5019146;28;20831;-82
2022/12/24 07:44:34;;;;;;;17.33;3.67;;;10.70;99.90;;;;;;5019825;28;20454;-81
2022/12/24 07:47:02;;;;;;;16.80;3.90;;;10.60;99.90;;;;;;5021065;28;20500;-81
2022/12/24 07:49:29;;;;;;;17.00;5.43;;;10.50;99.90;;;;;;5019375;28;20447;-80
2022/12/24 07:51:56;;;;;;;23.60;7.00;;;10.40;99.90;;;;;;5019860;28;20935;-81
2022/12/24 07:54:23;;;;;;;25.00;10.30;;;10.40;99.90;;;;;;5021197;28;20545;-81
2022/12/24 07:56:50;;;;;;;13.43;4.60;;;10.40;99.90;;;;;;5019630;28;20448;-82
2022/12/24 07:59:16;;;;;;;18.97;4.53;;;10.50;99.90;;;;;;5017927;28;20452;-80
2022/12/24 08:01:44;;;;;;;18.03;4.73;;;10.50;99.90;;;;;;5022346;28;20481;-80
2022/12/24 08:04:12;;;;;;;17.40;6.60;;;10.50;99.90;;;;;;5016948;28;20814;-80
2022/12/24 08:06:39;;;;;;;13.00;3.47;;;10.60;99.90;;;;;;5016078;28;20546;-80
2022/12/24 08:09:07;;;;;;;16.63;7.17;;;10.60;99.90;;;;;;5020860;28;20436;-85
2022/12/24 08:11:33;;;;;;;14.20;4.20;;;10.60;99.90;;;;;;5032563;28;20508;-84
2022/12/24 08:14:00;;;;;;;22.77;4.60;;;10.50;99.90;;;;;;5030154;28;20527;-84
2022/12/24 08:16:27;;;;;;;14.87;4.13;;;10.50;99.90;;;;;;5030731;28;20525;-83
2022/12/24 08:18:54;;;;;;;18.43;4.63;;;10.60;99.90;;;;;;5026864;28;20508;-82
2022/12/24 08:21:25;;;;;;;13.47;4.20;;;10.60;99.90;;;;;;5025185;28;20450;-83
2022/12/24 08:23:52;;;;;;;17.50;4.67;;;10.60;99.90;;;;;;5025938;28;20555;-82
2022/12/24 08:26:18;;;;;;;12.27;3.93;;;10.60;99.90;;;;;;5028516;28;20525;-81
2022/12/24 08:28:45;;;;;;;13.50;4.20;;;10.70;99.90;;;;;;5034054;28;20456;-84
2022/12/24 08:31:14;;;;;;;22.97;5.10;;;10.80;99.90;;;;;;5033549;28;20862;-86
2022/12/24 08:33:41;;;;;;;22.23;5.03;;;10.70;99.90;;;;;;5029623;28;20469;-83
2022/12/24 08:36:09;;;;;;;13.83;4.17;;;10.60;99.90;;;;;;5038790;28;20447;-86
2022/12/24 08:38:37;;;;;;;19.97;3.83;;;10.60;99.90;;;;;;5034875;28;20456;-82
2022/12/24 08:41:04;;;;;;;24.17;5.60;;;10.70;99.90;;;;;;5023156;28;20456;-82
2022/12/24 08:43:31;;;;;;;20.27;3.67;;;10.70;99.90;;;;;;5021134;28;20537;-82
2022/12/24 08:46:01;;;;;;;22.77;4.87;;;10.80;99.90;;;;;;5021638;28;20562;-85
2022/12/24 08:48:28;;;;;;;15.30;4.10;;;10.80;99.90;;;;;;5022689;28;20449;-81
2022/12/24 08:50:55;;;;;;;16.53;3.80;;;10.80;99.90;;;;;;5023569;28;20495;-82
2022/12/24 08:53:22;;;;;;;15.03;3.87;;;10.80;99.90;;;;;;5022566;28;20564;-82
2022/12/24 08:55:50;;;;;;;16.10;3.40;;;10.80;99.90;;;;;;5021555;28;20484;-84
2022/12/24 08:58:17;;;;;;;22.43;4.90;;;10.90;99.90;;;;;;5022103;28;20453;-82
2022/12/24 09:00:44;;;;;;;15.40;4.20;;;10.90;99.90;;;;;;5021895;28;20548;-81
2022/12/24 09:03:14;;;;;;;25.10;5.50;;;10.90;99.90;;;;;;5021546;28;20560;-83
2022/12/24 09:05:42;;;;;;;24.73;5.10;;;10.80;99.90;;;;;;5021759;28;20457;-82
2022/12/24 09:08:09;;;;;;;15.90;4.27;;;11.00;99.90;;;;;;5022142;28;20461;-82
2022/12/24 09:10:36;;;;;;;18.80;4.70;;;11.00;99.90;;;;;;5019361;28;20543;-83
2022/12/24 09:13:04;;;;;;;16.87;4.20;;;11.10;99.90;;;;;;5018082;28;20527;-84
2022/12/24 09:15:31;;;;;;;19.13;5.83;;;11.10;99.90;;;;;;5021484;28;20516;-84
2022/12/24 09:17:58;;;;;;;12.17;3.57;;;11.10;99.90;;;;;;5020164;28;20459;-83
2022/12/24 09:20:25;;;;;;;18.43;5.33;;;11.20;99.90;;;;;;5022511;28;20525;-83
2022/12/24 09:22:51;;;;;;;20.27;4.77;;;11.20;99.90;;;;;;5022229;28;20476;-83
2022/12/24 09:25:18;;;;;;;20.63;5.00;;;11.40;99.90;;;;;;5020580;28;20485;-83
2022/12/24 09:27:45;;;;;;;25.03;4.53;;;11.50;99.90;;;;;;5021319;28;20495;-83
2022/12/24 09:30:15;;;;;;;24.80;5.37;;;11.50;99.90;;;;;;5020408;28;20552;-82
2022/12/24 09:32:41;;;;;;;19.80;3.87;;;11.50;99.90;;;;;;5021594;28;20488;-82
2022/12/24 09:35:09;;;;;;;20.83;6.80;;;11.60;99.90;;;;;;5025247;28;20493;-83
2022/12/24 09:37:37;;;;;;;15.60;4.40;;;11.70;99.90;;;;;;5025045;28;20453;-83
2022/12/24 09:40:04;;;;;;;20.50;4.03;;;11.70;99.90;;;;;;5024422;28;20449;-81
2022/12/24 09:42:44;;;;;;;24.57;4.80;;;11.80;99.90;;;;;;5025971;28;20501;-83
2022/12/24 09:45:18;;;;;;;17.10;4.17;;;11.80;99.90;;;;;;5025496;28;20465;-82
2022/12/24 09:47:49;;;;;;;14.70;5.00;;;11.90;99.90;;;;;;5023000;28;20553;-83
2022/12/24 09:50:28;;;;;;;24.73;4.70;;;12.00;99.90;;;;;;5024830;28;20453;-82
2022/12/24 09:52:56;;;;;;;17.40;5.47;;;12.10;99.90;;;;;;5026585;28;20508;-83
2022/12/24 09:55:30;;;;;;;18.07;4.33;;;12.20;99.90;;;;;;5025283;28;20897;-83
2022/12/24 09:58:00;;;;;;;17.20;4.73;;;12.20;99.90;;;;;;5024973;28;20448;-83
2022/12/24 10:00:31;;;;;;;28.67;4.30;;;12.00;99.90;;;;;;5024846;28;20473;-83
2022/12/24 10:02:57;;;;;;;13.97;3.67;;;11.90;99.90;;;;;;5028637;28;20542;-83
2022/12/24 10:05:33;;;;;;;22.40;5.33;;;11.80;99.90;;;;;;5021703;28;20892;-82
2022/12/24 10:08:09;;;;;;;12.93;4.50;;;11.80;99.90;;;;;;5023384;28;20612;-85
2022/12/24 10:10:51;;;;;;;24.93;4.90;;;11.80;99.90;;;;;;5024376;28;20449;-83
2022/12/24 10:13:30;;;;;;;23.30;5.40;;;11.70;99.90;;;;;;5006407;28;21076;-81
2022/12/24 10:16:04;;;;;;;18.53;4.73;;;11.80;99.90;;;;;;5016548;28;20456;-81
2022/12/24 10:18:35;;;;;;;11.83;4.43;;;11.90;99.90;;;;;;5015234;28;20485;-81
2022/12/24 10:21:12;;;;;;;15.43;4.87;;;11.80;99.90;;;;;;5011568;28;20544;-82
2022/12/24 10:23:45;;;;;;;22.63;5.07;;;11.80;99.90;;;;;;5017063;28;20472;-82
2022/12/24 10:26:17;;;;;;;16.07;5.60;;;11.90;99.90;;;;;;5017278;28;20585;-82
2022/12/24 10:28:48;;;;;;;12.23;3.80;;;11.90;99.90;;;;;;5021174;28;20446;-82
2022/12/24 10:31:19;;;;;;;18.13;4.37;;;12.20;99.90;;;;;;5024536;28;20459;-81
2022/12/24 10:33:50;;;;;;;22.50;4.50;;;12.60;99.90;;;;;;5030776;28;20526;-81
2022/12/24 10:36:18;;;;;;;21.93;4.33;;;12.90;99.90;;;;;;5030709;28;20513;-79
2022/12/24 10:38:46;;;;;;;10.77;3.50;;;12.80;99.90;;;;;;5030435;28;20492;-80
2022/12/24 10:41:14;;;;;;;18.30;4.90;;;12.80;99.90;;;;;;5030995;28;20448;-82
2022/12/24 10:43:44;;;;;;;18.37;4.80;;;13.00;99.90;;;;;;5031065;28;20490;-81
2022/12/24 10:46:20;;;;;;;25.53;4.97;;;13.00;99.90;;;;;;5032245;28;20442;-81
2022/12/24 10:48:53;;;;;;;18.43;4.90;;;12.90;99.90;;;;;;5029760;28;20559;-80
2022/12/24 10:51:25;;;;;;;20.10;5.10;;;12.50;99.90;;;;;;5030717;28;20535;-80
2022/12/24 10:53:57;;;;;;;25.17;6.27;;;12.50;99.90;;;;;;5030934;28;20456;-81
2022/12/24 10:56:24;;;;;;;23.10;4.90;;;12.60;99.90;;;;;;5034855;28;20933;-81
2022/12/24 10:58:53;;;;;;;20.17;5.10;;;12.40;99.90;;;;;;5026978;28;21310;-81
2022/12/24 11:01:42;;;;;;;16.97;4.83;;;12.30;99.90;;;;;;5029480;28;20450;-79
2022/12/24 11:04:16;;;;;;;17.63;6.00;;;12.20;99.90;;;;;;5033298;28;20503;-80
2022/12/24 11:06:52;;;;;;;17.30;4.40;;;12.10;99.90;;;;;;5027069;28;20483;-80
2022/12/24 11:09:22;;;;;;;23.57;4.67;;;12.10;99.90;;;;;;5026535;28;20447;-81
2022/12/24 11:11:49;;;;;;;17.43;4.83;;;12.10;99.90;;;;;;5028178;28;20553;-80
2022/12/24 11:14:20;;;;;;;25.33;7.60;;;12.10;99.90;;;;;;5028512;28;20537;-82
2022/12/24 11:16:53;;;;;;;16.23;4.53;;;12.10;99.90;;;;;;5029574;28;20466;-81
2022/12/24 11:19:30;;;;;;;24.57;5.67;;;12.20;99.90;;;;;;5030113;28;20521;-81
2022/12/24 11:22:03;;;;;;;25.93;7.33;;;12.20;99.90;;;;;;5028917;28;20469;-80
2022/12/24 11:24:39;;;;;;;17.47;5.47;;;12.10;99.90;;;;;;5027280;28;20482;-81
2022/12/24 11:27:40;;;;;;;18.67;4.40;;;11.90;99.90;;;;;;5028473;28;20541;-81
2022/12/24 11:30:25;;;;;;;13.37;5.13;;;12.10;99.90;;;;;;4948360;29;20464;-82
2022/12/24 11:33:17;;;;;;;16.83;5.27;;;12.50;99.90;;;;;;5022973;28;20481;-82
2022/12/24 11:35:47;;;;;;;21.03;5.03;;;12.70;99.90;;;;;;5030134;28;20439;-82
2022/12/24 11:38:20;;;;;;;24.77;5.70;;;12.70;99.90;;;;;;5029826;28;20896;-83
2022/12/24 11:40:49;;;;;;;15.17;4.63;;;12.50;99.90;;;;;;5035213;28;20488;-82
2022/12/24 11:43:18;;;;;;;21.50;6.43;;;12.50;99.90;;;;;;5033676;28;20486;-83
2022/12/24 11:45:53;;;;;;;15.10;4.80;;;12.30;99.90;;;;;;5033439;28;20454;-83
2022/12/24 11:48:29;;;;;;;22.37;5.57;;;12.30;99.90;;;;;;5035404;28;20580;-82
2022/12/24 11:50:58;;;;;;;19.03;5.53;;;12.30;99.90;;;;;;5031068;28;20469;-84
2022/12/24 11:53:31;;;;;;;16.73;5.60;;;12.40;99.90;;;;;;5032405;28;20522;-84
2022/12/24 11:56:01;;;;;;;18.73;5.80;;;12.30;99.90;;;;;;5033449;28;20472;-83
2022/12/24 11:58:35;;;;;;;22.37;4.83;;;12.30;99.90;;;;;;5032959;28;20472;-86
2022/12/24 12:01:11;;;;;;;19.97;6.50;;;12.40;99.90;;;;;;5027610;28;20455;-81
2022/12/24 12:03:43;;;;;;;14.60;5.07;;;12.40;99.90;;;;;;5030218;28;20474;-82
2022/12/24 12:06:23;;;;;;;29.10;6.03;;;12.50;99.90;;;;;;5029772;28;20449;-83
2022/12/24 12:08:53;;;;;;;14.30;4.70;;;12.40;99.90;;;;;;5040894;28;20516;-84
2022/12/24 12:11:21;;;;;;;20.83;4.50;;;12.40;99.90;;;;;;5029729;28;20513;-84
2022/12/24 12:13:48;;;;;;;21.23;6.20;;;12.30;99.90;;;;;;5043387;28;20543;-85
2022/12/24 12:16:23;;;;;;;15.53;3.90;;;12.20;99.90;;;;;;5029421;28;20476;-82
2022/12/24 12:18:55;;;;;;;20.23;5.27;;;12.30;99.90;;;;;;5039622;28;20507;-83
2022/12/24 12:21:26;;;;;;;14.17;5.07;;;12.30;99.90;;;;;;5031781;28;20460;-86
2022/12/24 12:23:57;;;;;;;19.30;6.33;;;12.40;99.90;;;;;;5034351;28;20455;-83
2022/12/24 12:26:27;;;;;;;14.03;5.10;;;12.30;99.90;;;;;;5033246;28;20437;-82
2022/12/24 12:28:58;;;;;;;20.20;4.93;;;12.30;99.90;;;;;;5029433;28;20462;-83
2022/12/24 12:31:36;;;;;;;18.80;5.30;;;12.20;99.90;;;;;;5033131;28;20442;-83
2022/12/24 12:34:08;;;;;;;15.93;5.07;;;12.20;99.90;;;;;;5033390;28;20445;-82
2022/12/24 12:36:52;;;;;;;22.13;5.00;;;12.30;99.90;;;;;;5033851;28;20449;-82
2022/12/24 12:39:21;;;;;;;20.67;5.63;;;12.20;99.90;;;;;;5031337;28;20498;-82
2022/12/24 12:41:59;;;;;;;17.03;5.07;;;12.20;99.90;;;;;;5034525;28;20500;-81
2022/12/24 12:44:49;;;;;;;18.27;4.80;;;12.30;99.90;;;;;;5036683;28;20496;-83
2022/12/24 12:47:33;;;;;;;17.67;5.33;;;12.30;99.90;;;;;;5031519;28;20554;-82
2022/12/24 12:50:11;;;;;;;19.83;5.07;;;12.20;99.90;;;;;;5032892;28;20536;-82
2022/12/24 12:52:54;;;;;;;14.80;3.83;;;12.20;99.90;;;;;;5036732;28;20461;-82
2022/12/24 12:55:35;;;;;;;21.00;4.13;;;12.30;99.90;;;;;;5033951;28;20445;-80
2022/12/24 12:58:09;;;;;;;10.63;3.80;;;12.50;99.90;;;;;;5032658;28;20437;-82
2022/12/24 13:00:40;;;;;;;22.37;4.50;;;12.80;99.90;;;;;;5031618;28;20503;-83